47G weather

Public forecast

Using degrees Fahrenheit for public forecast. Weather courtesy of forecast.io.

Closest aviation weather report (METAR) to Mayes Airport

Closest report is Gratiot Community Airport, 9.7 nm (18.0 km) ENE. Retrieved 2020/08/10 04:35 UTC (0 seconds ago):

KAMN 100435Z AUTO 20006KT 10SM SCT044 SCT070 24/20 A3000 RMK AO2 T02420200

Closest aviation forecast (TAF) to Mayes Airport

Closest forecast is Capital City Airport, 30.6 nm (56.6 km) SSE. Retrieved 2020-08-10 00:42 UTC (4 hours ago):

TAF KLAN 092340Z 1000/1024 19006KT P6SM SCT050 FM101500 20010KT P6SM BKN035 FM102100 24010KT P6SM VCTS BKN060CB